createdAt,value
2022-09-01T00:01:53.566Z,0.45
2022-09-01T00:04:23.259Z,0.50
2022-09-01T00:06:50.123Z,0.70
2022-09-01T00:09:19.822Z,0.63
2022-09-01T00:11:50.483Z,0.50
2022-09-01T00:14:30.068Z,0.70
2022-09-01T00:17:02.782Z,0.65
2022-09-01T00:19:29.840Z,0.50
2022-09-01T00:21:56.945Z,0.60
2022-09-01T00:24:26.340Z,0.65
2022-09-01T00:26:54.395Z,0.60
2022-09-01T00:29:21.115Z,0.50
2022-09-01T00:31:48.063Z,0.60
2022-09-01T00:34:15.387Z,0.60
2022-09-01T00:36:42.109Z,0.60
2022-09-01T00:39:09.017Z,0.43
2022-09-01T00:41:40.066Z,0.50
2022-09-01T00:44:12.081Z,0.60
2022-09-01T00:46:47.683Z,0.50
2022-09-01T00:49:24.428Z,0.57
2022-09-01T00:51:57.518Z,0.60
2022-09-01T00:54:27.131Z,0.65
2022-09-01T00:56:57.976Z,0.65
2022-09-01T00:59:26.168Z,0.60
2022-09-01T01:01:53.654Z,0.50
2022-09-01T01:04:20.840Z,0.57
2022-09-01T01:06:58.763Z,0.50
2022-09-01T01:09:27.164Z,0.40
2022-09-01T01:11:54.223Z,0.40
2022-09-01T01:14:20.998Z,0.47
2022-09-01T01:16:52.408Z,0.50
2022-09-01T01:19:43.844Z,0.70
2022-09-01T01:22:34.321Z,0.50
2022-09-01T01:25:02.317Z,0.60
2022-09-01T01:27:38.064Z,0.45
2022-09-01T01:30:12.830Z,0.40
2022-09-01T01:32:43.337Z,0.60
2022-09-01T01:35:15.027Z,0.43
2022-09-01T01:37:49.253Z,0.60
2022-09-01T01:40:22.993Z,0.68
2022-09-01T01:42:52.078Z,0.47
2022-09-01T01:45:21.687Z,0.80
2022-09-01T01:47:56.799Z,0.50
2022-09-01T01:50:36.034Z,0.50
2022-09-01T01:53:10.967Z,0.60
2022-09-01T01:55:40.713Z,0.50
2022-09-01T01:58:08.343Z,0.35
2022-09-01T02:00:35.224Z,0.50
2022-09-01T02:03:03.371Z,0.60
2022-09-01T02:05:34.923Z,0.52
2022-09-01T02:08:08.159Z,0.43
2022-09-01T02:10:44.354Z,0.60
2022-09-01T02:13:16.559Z,0.50
2022-09-01T02:15:47.154Z,0.60
2022-09-01T02:18:28.075Z,0.65
2022-09-01T02:20:59.128Z,0.70
2022-09-01T02:23:25.950Z,0.45
2022-09-01T02:26:15.728Z,0.50
2022-09-01T02:28:45.512Z,0.47
2022-09-01T02:31:12.679Z,0.40
2022-09-01T02:33:40.999Z,0.50
2022-09-01T02:36:14.067Z,0.50
2022-09-01T02:38:46.852Z,0.45
2022-09-01T02:41:23.259Z,0.70
2022-09-01T02:43:56.033Z,0.70
2022-09-01T02:46:24.669Z,0.65
2022-09-01T02:48:52.807Z,0.50
2022-09-01T02:51:22.754Z,0.47
2022-09-01T02:53:52.930Z,0.50
2022-09-01T02:56:25.738Z,0.65
2022-09-01T02:58:54.274Z,0.40
2022-09-01T03:01:25.809Z,0.60
2022-09-01T03:03:55.603Z,0.60
2022-09-01T03:06:24.565Z,0.65
2022-09-01T03:08:59.807Z,0.45
2022-09-01T03:11:28.090Z,0.50
2022-09-01T03:13:56.862Z,0.50
2022-09-01T03:16:23.710Z,0.60
2022-09-01T03:18:51.941Z,0.47
2022-09-01T03:21:20.359Z,0.60
2022-09-01T03:23:50.011Z,0.50
2022-09-01T03:26:19.510Z,0.43
2022-09-01T03:28:46.580Z,0.50
2022-09-01T03:31:14.501Z,0.60
2022-09-01T03:33:42.392Z,0.43
2022-09-01T03:36:22.274Z,0.60
2022-09-01T03:38:49.979Z,0.90
2022-09-01T03:41:21.758Z,0.50
2022-09-01T03:43:49.169Z,0.60
2022-09-01T03:46:21.884Z,0.65
2022-09-01T03:48:55.959Z,0.70
2022-09-01T03:51:23.594Z,0.60
2022-09-01T03:53:54.638Z,0.73
2022-09-01T03:56:24.262Z,0.77
2022-09-01T03:58:52.202Z,0.77
2022-09-01T04:01:19.569Z,0.93
2022-09-01T04:03:51.048Z,0.82
2022-09-01T04:06:24.285Z,0.60
2022-09-01T04:08:56.989Z,0.60
2022-09-01T04:11:25.430Z,0.65
2022-09-01T04:13:53.159Z,0.75
2022-09-01T04:16:44.780Z,0.90
2022-09-01T04:19:25.782Z,0.73
2022-09-01T04:22:01.304Z,0.80
2022-09-01T04:24:36.001Z,0.80
2022-09-01T04:27:03.644Z,0.90
2022-09-01T04:29:32.056Z,1.10
2022-09-01T04:32:03.895Z,0.80
2022-09-01T04:34:37.631Z,0.80
2022-09-01T04:37:13.366Z,0.90
2022-09-01T04:39:53.689Z,1.15
2022-09-01T04:42:24.326Z,1.15
2022-09-01T04:44:53.729Z,0.90
2022-09-01T04:47:35.566Z,1.45
2022-09-01T04:50:14.517Z,1.45
2022-09-01T04:52:46.073Z,1.27
2022-09-01T04:55:29.931Z,1.20
2022-09-01T04:57:59.244Z,1.40
2022-09-01T05:00:28.037Z,0.98
2022-09-01T05:03:03.170Z,1.00
2022-09-01T05:05:45.402Z,1.20
2022-09-01T05:08:23.451Z,1.10
2022-09-01T05:10:55.919Z,1.27
2022-09-01T05:13:39.724Z,1.10
2022-09-01T05:16:13.362Z,0.95
2022-09-01T05:18:49.095Z,1.48
2022-09-01T05:21:20.127Z,1.10
2022-09-01T05:23:47.945Z,1.50
2022-09-01T05:26:19.277Z,1.20
2022-09-01T05:28:53.903Z,1.10
2022-09-01T05:31:21.534Z,1.00
2022-09-01T05:33:51.090Z,1.38
2022-09-01T05:36:20.370Z,1.08
2022-09-01T05:38:48.296Z,1.63
2022-09-01T05:41:17.544Z,1.40
2022-09-01T05:43:46.699Z,1.40
2022-09-01T05:46:17.162Z,1.10
2022-09-01T05:48:45.523Z,1.20
2022-09-01T05:51:42.841Z,1.30
2022-09-01T05:54:09.477Z,1.30
2022-09-01T05:56:43.706Z,1.00
2022-09-01T05:59:23.315Z,1.30
2022-09-01T06:01:53.655Z,1.27
2022-09-01T06:04:25.841Z,1.23
2022-09-01T06:07:05.326Z,1.25
2022-09-01T06:09:43.082Z,1.08
2022-09-01T06:12:23.263Z,1.30
2022-09-01T06:14:51.839Z,1.10
2022-09-01T06:17:25.183Z,1.08
2022-09-01T06:19:55.829Z,1.00
2022-09-01T06:22:24.141Z,1.35
2022-09-01T06:24:56.893Z,0.90
2022-09-01T06:27:28.344Z,0.80
2022-09-01T06:29:56.380Z,1.45
2022-09-01T06:32:26.075Z,0.70
2022-09-01T06:34:54.810Z,1.13
2022-09-01T06:37:23.133Z,0.90
2022-09-01T06:39:53.218Z,1.00
2022-09-01T06:42:20.477Z,1.00
2022-09-01T06:44:53.092Z,0.63
2022-09-01T06:47:20.186Z,0.82
2022-09-01T06:49:46.935Z,0.85
2022-09-01T06:52:23.741Z,0.98
2022-09-01T06:54:53.423Z,0.70
2022-09-01T07:00:21.173Z,0.60
2022-09-01T07:02:56.508Z,0.85
2022-09-01T07:09:20.229Z,0.73
2022-09-01T07:12:24.871Z,0.93
2022-09-01T07:17:50.311Z,0.80
2022-09-01T07:20:29.389Z,0.60
2022-09-01T07:23:06.442Z,0.68
2022-09-01T07:28:39.992Z,0.88
2022-09-01T07:39:49.168Z,0.68
2022-09-01T07:45:48.082Z,0.63
2022-09-01T07:48:36.742Z,0.60
2022-09-01T07:51:37.187Z,0.50
2022-09-01T07:54:06.015Z,0.65
2022-09-01T07:56:39.455Z,0.40
2022-09-01T07:59:08.359Z,0.50
2022-09-01T08:01:38.114Z,0.50
2022-09-01T08:04:05.025Z,0.70
2022-09-01T08:06:39.318Z,0.50
2022-09-01T08:09:11.493Z,0.50
2022-09-01T08:14:25.955Z,0.35
2022-09-01T08:16:53.223Z,0.45
2022-09-01T08:19:20.557Z,0.50
2022-09-01T08:22:10.253Z,0.47
2022-09-01T08:24:51.603Z,0.38
2022-09-01T08:27:18.856Z,0.40
2022-09-01T08:29:45.731Z,0.80
2022-09-01T08:32:13.382Z,0.45
2022-09-01T08:34:40.352Z,0.60
2022-09-01T08:37:07.600Z,0.55
2022-09-01T08:39:35.479Z,0.40
2022-09-01T08:42:20.096Z,0.40
2022-09-01T08:44:47.423Z,0.30
2022-09-01T08:47:17.236Z,0.28
2022-09-01T08:49:47.302Z,0.60
2022-09-01T08:52:31.327Z,0.75
2022-09-01T08:55:27.788Z,0.40
2022-09-01T08:57:59.746Z,0.50
2022-09-01T09:00:33.353Z,0.43
2022-09-01T09:03:40.565Z,0.30
2022-09-01T09:06:26.144Z,0.50
2022-09-01T09:08:58.095Z,0.30
2022-09-01T09:11:50.459Z,0.30
2022-09-01T09:14:20.458Z,0.30
2022-09-01T09:16:51.565Z,0.40
2022-09-01T09:19:30.993Z,0.40
2022-09-01T09:22:00.745Z,0.30
2022-09-01T09:25:03.896Z,0.50
2022-09-01T09:27:36.823Z,0.60
2022-09-01T09:30:31.569Z,0.40
2022-09-01T09:35:55.032Z,0.50
2022-09-01T09:38:29.373Z,0.38
2022-09-01T09:41:17.017Z,0.30
2022-09-01T09:44:04.656Z,0.32
2022-09-01T09:46:36.576Z,0.30
2022-09-01T09:49:35.132Z,0.60
2022-09-01T09:52:10.310Z,0.40
2022-09-01T09:54:57.599Z,0.57
2022-09-01T09:57:24.727Z,0.28
2022-09-01T10:00:01.446Z,0.30
2022-09-01T10:02:33.339Z,0.43
2022-09-01T10:05:41.724Z,0.40
2022-09-01T10:08:34.971Z,0.38
2022-09-01T10:11:02.283Z,0.32
2022-09-01T10:13:33.115Z,0.50
2022-09-01T10:16:03.767Z,0.45
2022-09-01T10:18:45.248Z,0.40
2022-09-01T10:21:17.699Z,0.30
2022-09-01T10:23:44.822Z,0.50
2022-09-01T10:26:18.875Z,0.30
2022-09-01T10:28:56.888Z,0.32
2022-09-01T10:31:29.526Z,0.40
2022-09-01T10:34:02.877Z,0.70
2022-09-01T10:36:33.796Z,0.52
2022-09-01T10:39:06.208Z,0.30
2022-09-01T10:42:07.753Z,0.30
2022-09-01T10:44:36.569Z,0.50
2022-09-01T10:47:30.279Z,0.30
2022-09-01T10:50:00.144Z,0.20
2022-09-01T10:52:43.907Z,0.40
2022-09-01T10:55:24.746Z,0.38
2022-09-01T10:57:56.140Z,0.40
2022-09-01T11:00:38.993Z,0.20
2022-09-01T11:06:13.024Z,0.30
2022-09-01T11:08:59.259Z,0.30
2022-09-01T11:11:41.794Z,0.47
2022-09-01T11:14:23.345Z,0.20
2022-09-01T11:17:13.576Z,0.40
2022-09-01T11:19:55.715Z,0.40
2022-09-01T11:22:32.770Z,0.38
2022-09-01T11:25:41.292Z,0.22
2022-09-01T11:28:10.821Z,0.35
2022-09-01T11:30:53.127Z,0.30
2022-09-01T11:33:32.230Z,0.30
2022-09-01T11:36:12.480Z,0.60
2022-09-01T11:39:14.651Z,0.40
2022-09-01T11:41:55.740Z,0.30
2022-09-01T11:44:42.572Z,0.38
2022-09-01T11:47:40.766Z,0.40
2022-09-01T11:50:16.593Z,0.40
2022-09-01T11:52:43.666Z,0.43
2022-09-01T11:55:10.719Z,0.20
2022-09-01T11:57:40.405Z,0.30
2022-09-01T12:00:13.462Z,0.30
2022-09-01T12:02:46.373Z,0.40
2022-09-01T12:05:35.598Z,0.25
2022-09-01T12:08:04.666Z,0.40
2022-09-01T12:10:38.653Z,0.30
2022-09-01T12:13:12.344Z,0.30
2022-09-01T12:16:13.957Z,0.40
2022-09-01T12:18:31.896Z,0.40
2022-09-01T12:21:02.287Z,0.30
2022-09-01T12:23:34.367Z,0.50
2022-09-01T12:26:03.679Z,0.50
2022-09-01T12:28:31.882Z,0.40
2022-09-01T12:31:09.312Z,0.60
2022-09-01T12:33:36.717Z,0.30
2022-09-01T12:36:26.283Z,0.32
2022-09-01T12:38:55.143Z,0.40
2022-09-01T12:41:24.919Z,0.30
2022-09-01T12:43:54.658Z,0.30
2022-09-01T12:46:44.884Z,0.30
2022-09-01T12:49:20.119Z,0.20
2022-09-01T12:51:48.713Z,0.40
2022-09-01T12:54:16.232Z,0.50
2022-09-01T12:56:48.653Z,0.32
2022-09-01T12:59:36.127Z,0.40
2022-09-01T13:02:27.464Z,0.38
2022-09-01T13:04:54.330Z,0.28
2022-09-01T13:07:21.239Z,0.30
2022-09-01T13:09:48.063Z,0.30
2022-09-01T13:12:21.544Z,0.30
2022-09-01T13:14:48.309Z,0.40
2022-09-01T13:17:15.198Z,0.40
2022-09-01T13:19:42.451Z,0.20
2022-09-01T13:22:09.339Z,0.30
2022-09-01T13:24:36.099Z,0.20
2022-09-01T13:29:50.516Z,0.32
2022-09-01T13:32:20.862Z,0.30
2022-09-01T13:34:52.717Z,0.45
2022-09-01T13:37:20.992Z,0.30
2022-09-01T13:39:48.665Z,0.30
2022-09-01T13:42:16.137Z,0.88
2022-09-01T13:44:44.660Z,0.25
2022-09-01T13:50:09.906Z,0.20
2022-09-01T13:52:38.756Z,0.43
2022-09-01T13:55:06.784Z,0.93
2022-09-01T13:57:36.626Z,0.50
2022-09-01T14:00:06.684Z,0.30
2022-09-01T14:02:39.250Z,0.30
2022-09-01T14:05:07.197Z,0.20
2022-09-01T14:07:34.262Z,0.30
2022-09-01T14:10:01.283Z,0.30
2022-09-01T14:12:30.406Z,0.20
2022-09-01T14:15:16.502Z,0.85
2022-09-01T14:17:46.024Z,0.25
2022-09-01T14:20:16.284Z,0.30
2022-09-01T14:22:43.279Z,0.28
2022-09-01T14:25:10.983Z,0.38
2022-09-01T14:27:38.473Z,0.30
2022-09-01T14:30:07.724Z,0.20
2022-09-01T14:32:35.157Z,0.20
2022-09-01T14:35:02.365Z,0.20
2022-09-01T14:37:29.463Z,0.20
2022-09-01T14:39:57.446Z,0.40
2022-09-01T14:42:29.281Z,0.30
2022-09-01T14:44:56.539Z,0.30
2022-09-01T14:47:25.809Z,0.32
2022-09-01T14:49:53.623Z,0.43
2022-09-01T14:52:22.235Z,0.10
2022-09-01T14:54:49.719Z,0.40
2022-09-01T14:57:37.612Z,0.40
2022-09-01T15:00:15.151Z,0.20
2022-09-01T15:02:43.025Z,0.30
2022-09-01T15:05:11.147Z,0.30
2022-09-01T15:07:38.650Z,0.40
2022-09-01T15:10:08.619Z,0.40
2022-09-01T15:12:35.612Z,0.40
2022-09-01T15:15:02.489Z,0.20
2022-09-01T15:17:29.636Z,0.40
2022-09-01T15:19:56.432Z,0.30
2022-09-01T15:22:23.152Z,0.60
2022-09-01T15:24:49.849Z,0.30
2022-09-01T15:27:16.663Z,0.30
2022-09-01T15:29:48.115Z,0.40
2022-09-01T15:32:27.447Z,0.30
2022-09-01T15:34:55.326Z,0.30
2022-09-01T15:37:22.067Z,0.30
2022-09-01T15:39:48.850Z,0.50
2022-09-01T15:42:17.545Z,0.40
2022-09-01T15:44:44.489Z,0.43
2022-09-01T15:47:11.319Z,0.40
2022-09-01T15:49:38.079Z,0.30
2022-09-01T15:52:04.841Z,0.47
2022-09-01T15:54:31.729Z,0.30
2022-09-01T15:56:58.597Z,0.47
2022-09-01T15:59:25.378Z,0.38
2022-09-01T16:01:54.565Z,0.30
2022-09-01T16:04:27.552Z,0.40
2022-09-01T16:06:56.706Z,0.30
2022-09-01T16:09:23.641Z,0.32
2022-09-01T16:11:50.646Z,0.50
2022-09-01T16:14:17.466Z,0.60
2022-09-01T16:16:48.512Z,0.43
2022-09-01T16:19:22.718Z,0.93
2022-09-01T16:21:56.921Z,0.40
2022-09-01T16:24:24.338Z,0.32
2022-09-01T16:26:52.467Z,0.30
2022-09-01T16:29:30.768Z,0.30
2022-09-01T16:31:57.628Z,0.45
2022-09-01T16:34:27.805Z,0.40
2022-09-01T16:37:00.782Z,0.40
2022-09-01T16:39:39.177Z,0.40
2022-09-01T16:42:22.924Z,0.30
2022-09-01T16:45:01.942Z,0.40
2022-09-01T16:47:44.369Z,0.30
2022-09-01T16:50:20.967Z,0.38
2022-09-01T16:53:14.193Z,0.40
2022-09-01T16:56:10.998Z,0.30
2022-09-01T16:58:44.817Z,0.40
2022-09-01T17:01:36.834Z,0.30
2022-09-01T17:04:22.427Z,0.32
2022-09-01T17:06:57.582Z,0.40
2022-09-01T17:09:54.193Z,0.45
2022-09-01T17:12:47.051Z,0.40
2022-09-01T17:15:22.623Z,0.73
2022-09-01T17:18:10.217Z,0.40
2022-09-01T17:20:57.999Z,0.50
2022-09-01T17:23:28.437Z,0.40
2022-09-01T17:25:59.069Z,0.30
2022-09-01T17:28:38.798Z,0.50
2022-09-01T17:31:17.856Z,0.50
2022-09-01T17:33:47.521Z,0.50
2022-09-01T17:36:52.813Z,0.60
2022-09-01T17:39:57.067Z,0.50
2022-09-01T17:42:27.611Z,0.50
2022-09-01T17:44:59.757Z,0.35
2022-09-01T17:47:44.778Z,0.47
2022-09-01T17:50:50.248Z,0.50
2022-09-01T17:53:35.343Z,0.40
2022-09-01T17:56:09.228Z,0.60
2022-09-01T17:58:42.460Z,0.60
2022-09-01T18:01:19.349Z,0.50
2022-09-01T18:04:24.232Z,0.55
2022-09-01T18:06:56.735Z,0.30
2022-09-01T18:09:26.065Z,0.40
2022-09-01T18:12:05.325Z,0.55
2022-09-01T18:14:40.115Z,0.40
2022-09-01T18:17:19.363Z,0.30
2022-09-01T18:19:48.737Z,0.40
2022-09-01T18:22:19.292Z,0.70
2022-09-01T18:24:54.880Z,1.40
2022-09-01T18:27:24.663Z,1.25
2022-09-01T18:29:53.023Z,0.65
2022-09-01T18:32:38.592Z,0.50
2022-09-01T18:35:26.619Z,0.60
2022-09-01T18:37:59.330Z,0.50
2022-09-01T18:40:34.069Z,0.50
2022-09-01T18:43:31.059Z,0.57
2022-09-01T18:46:20.956Z,0.65
2022-09-01T18:48:56.949Z,0.47
2022-09-01T18:51:30.346Z,1.30
2022-09-01T18:54:02.785Z,0.93
2022-09-01T18:57:01.916Z,0.60
2022-09-01T18:59:48.678Z,0.65
2022-09-01T19:02:51.169Z,0.98
2022-09-01T19:05:46.174Z,0.88
2022-09-01T19:08:42.734Z,0.77
2022-09-01T19:11:30.751Z,0.80
2022-09-01T19:14:16.665Z,0.75
2022-09-01T19:17:08.890Z,0.82
2022-09-01T19:19:45.380Z,0.75
2022-09-01T19:22:21.680Z,0.90
2022-09-01T19:25:15.956Z,0.60
2022-09-01T19:27:42.750Z,0.88
2022-09-01T19:30:12.641Z,0.60
2022-09-01T19:32:39.436Z,0.73
2022-09-01T19:35:15.850Z,0.70
2022-09-01T19:37:44.596Z,0.80
2022-09-01T19:40:11.758Z,0.90
2022-09-01T19:43:17.832Z,0.82
2022-09-01T19:45:59.093Z,0.88
2022-09-01T19:48:38.910Z,0.77
2022-09-01T19:51:14.035Z,1.05
2022-09-01T19:53:59.026Z,0.70
2022-09-01T19:56:28.666Z,0.88
2022-09-01T19:59:14.230Z,0.70
2022-09-01T20:01:44.047Z,0.98
2022-09-01T20:04:21.441Z,1.20
2022-09-01T20:06:51.344Z,0.82
2022-09-01T20:09:29.270Z,0.80
2022-09-01T20:12:09.124Z,1.40
2022-09-01T20:15:01.054Z,1.25
2022-09-01T20:18:03.765Z,1.13
2022-09-01T20:20:38.150Z,1.10
2022-09-01T20:23:29.389Z,1.17
2022-09-01T20:26:04.279Z,1.10
2022-09-01T20:28:55.399Z,1.00
2022-09-01T20:31:28.817Z,1.00
2022-09-01T20:34:04.685Z,0.95
2022-09-01T20:36:38.849Z,1.20
2022-09-01T20:39:30.460Z,1.05
2022-09-01T20:42:12.524Z,1.00
2022-09-01T20:44:52.323Z,1.05
2022-09-01T20:47:19.446Z,0.95
2022-09-01T20:49:46.257Z,0.80
2022-09-01T20:52:26.154Z,1.48
2022-09-01T20:55:08.071Z,1.30
2022-09-01T20:57:48.483Z,1.00
2022-09-01T21:00:23.085Z,0.95
2022-09-01T21:03:05.475Z,1.23
2022-09-01T21:05:41.209Z,1.35
2022-09-01T21:08:14.701Z,1.55
2022-09-01T21:10:48.565Z,1.60
2022-09-01T21:13:26.715Z,1.58
2022-09-01T21:16:04.950Z,1.20
2022-09-01T21:18:46.892Z,1.20
2022-09-01T21:21:45.612Z,1.30
2022-09-01T21:24:12.381Z,1.40
2022-09-01T21:26:40.382Z,1.30
2022-09-01T21:29:26.707Z,1.23
2022-09-01T21:31:53.488Z,1.50
2022-09-01T21:34:20.236Z,1.30
2022-09-01T21:36:46.956Z,1.40
2022-09-01T21:39:14.779Z,1.45
2022-09-01T21:41:41.583Z,1.80
2022-09-01T21:44:09.189Z,1.40
2022-09-01T21:46:35.973Z,1.23
2022-09-01T21:49:02.680Z,1.20
2022-09-01T21:51:29.466Z,1.33
2022-09-01T21:53:56.203Z,1.42
2022-09-01T21:56:25.877Z,1.20
2022-09-01T21:58:53.133Z,1.40
2022-09-01T22:01:19.934Z,1.40
2022-09-01T22:03:46.680Z,1.33
2022-09-01T22:06:13.560Z,1.30
2022-09-01T22:08:40.305Z,1.42
2022-09-01T22:11:10.005Z,1.52
2022-09-01T22:13:36.940Z,1.20
2022-09-01T22:16:03.897Z,1.30
2022-09-01T22:18:30.695Z,1.30
2022-09-01T22:21:02.601Z,1.58
2022-09-01T22:23:29.435Z,1.40
2022-09-01T22:25:56.149Z,1.23
2022-09-01T22:28:22.861Z,1.35
2022-09-01T22:30:53.700Z,1.13
2022-09-01T22:33:22.905Z,1.17
2022-09-01T22:35:54.257Z,1.40
2022-09-01T22:38:22.012Z,1.40
2022-09-01T22:40:55.611Z,1.33
2022-09-01T22:43:24.230Z,1.50
2022-09-01T22:45:51.744Z,1.40
2022-09-01T22:48:20.135Z,1.20
2022-09-01T22:50:47.795Z,1.48
2022-09-01T22:53:15.653Z,1.20
2022-09-01T22:55:45.350Z,1.58
2022-09-01T22:58:12.518Z,1.30
2022-09-01T23:00:44.242Z,1.35
2022-09-01T23:03:11.049Z,1.30
2022-09-01T23:05:37.769Z,1.38
2022-09-01T23:08:04.500Z,1.10
2022-09-01T23:10:31.603Z,1.30
2022-09-01T23:12:58.463Z,1.20
2022-09-01T23:15:25.286Z,1.20
2022-09-01T23:17:52.027Z,1.27
2022-09-01T23:20:19.062Z,1.45
2022-09-01T23:22:46.220Z,1.48
2022-09-01T23:25:14.998Z,1.27
2022-09-01T23:27:42.006Z,1.35
2022-09-01T23:30:11.057Z,1.38
2022-09-01T23:32:38.158Z,1.30
2022-09-01T23:35:05.614Z,1.48
2022-09-01T23:37:32.292Z,1.13
2022-09-01T23:39:58.988Z,1.30
2022-09-01T23:42:25.723Z,1.20
2022-09-01T23:44:52.414Z,1.50
2022-09-01T23:47:19.747Z,1.23
2022-09-01T23:49:46.443Z,1.30
2022-09-01T23:52:13.178Z,1.30
2022-09-01T23:54:40.003Z,1.10
2022-09-01T23:57:06.784Z,1.40
2022-09-01T23:59:33.516Z,1.40
